Hanks, North Dakota
Current Conditions -  °F | °C
As of 12:52 PM on Monday 20 Oct 2014 (Local Time) from KISN Reporting Station
Clear Clear  
Wind Chill: 69°   Ceiling: Unl
Heat Index: 69°   Visibility: 10mi
Dew Point: 40°   Wind: 12mph
Humidity: 35%   Direction: 160°SSE
Pressure: 29.91"   Gusts: NA
Location:  48.5906°N, 103.667°W
Report Text: KISN 201752Z AUTO 16010KT 10SM CLR 21/04 A2991 RMK AO2 SLP133 T02060044 10206 20011 58015
Loading
Personal Weather Stations






























Interactive Weather Map
Tropical Storm Tracking
New forecast layout! Learn more

10-Day Weather Forecast

Advertisements
Track Severe Weather on mobile